METAR Formatted Surface Weather Observation
Issued by NWS

Home | Current Version | Previous Version | Text Only | Print | Product List | Glossary On
Versions: 1 2 3 4 5 6 7 8 9 10 11 12 13 14 15 16 17 18 19 20 21 22 23 24 25 26 27 28 29 30 31 32 33 34
000
SAUS45 KBOU 302358
MTRABH
METAR KABH 302356Z AUTO 14007KT 10SM CLR 10/M04 A3037 RMK AO2 SLP277
T01001044 10156 20100 53009 $



USA.gov is the U.S. government's official web portal to all federal, state and local government web resources and services.